sensor_id;sensor_type;location;lat;lon;timestamp;pressure;altitude;pressure_sealevel;temperature
19061;BMP280;9663;48.996;8.334;2023-02-15T00:01:11;101809.53;;;6.72
19061;BMP280;9663;48.996;8.334;2023-02-15T00:03:37;101808.75;;;6.75
19061;BMP280;9663;48.996;8.334;2023-02-15T00:06:04;101809.75;;;6.78
19061;BMP280;9663;48.996;8.334;2023-02-15T00:08:31;101808.94;;;6.79
19061;BMP280;9663;48.996;8.334;2023-02-15T00:11:23;101808.16;;;6.80
19061;BMP280;9663;48.996;8.334;2023-02-15T00:14:22;101804.00;;;6.82
19061;BMP280;9663;48.996;8.334;2023-02-15T00:16:51;101803.22;;;6.84
19061;BMP280;9663;48.996;8.334;2023-02-15T00:19:19;101803.34;;;6.87
19061;BMP280;9663;48.996;8.334;2023-02-15T00:21:47;101799.25;;;6.91
19061;BMP280;9663;48.996;8.334;2023-02-15T00:24:17;101795.16;;;6.93
19061;BMP280;9663;48.996;8.334;2023-02-15T00:26:44;101801.94;;;6.95
19061;BMP280;9663;48.996;8.334;2023-02-15T00:29:12;101792.03;;;7.00
19061;BMP280;9663;48.996;8.334;2023-02-15T00:31:38;101794.66;;;7.03
19061;BMP280;9663;48.996;8.334;2023-02-15T00:34:11;101793.88;;;7.05
19061;BMP280;9663;48.996;8.334;2023-02-15T00:36:37;101797.38;;;7.09
19061;BMP280;9663;48.996;8.334;2023-02-15T00:39:04;101808.34;;;7.11
19061;BMP280;9663;48.996;8.334;2023-02-15T00:41:31;101798.25;;;7.11
19061;BMP280;9663;48.996;8.334;2023-02-15T00:43:57;101794.16;;;7.13
19061;BMP280;9663;48.996;8.334;2023-02-15T00:46:22;101794.22;;;7.16
19061;BMP280;9663;48.996;8.334;2023-02-15T00:48:48;101787.47;;;7.15
19061;BMP280;9663;48.996;8.334;2023-02-15T00:51:14;101790.06;;;7.16
19061;BMP280;9663;48.996;8.334;2023-02-15T00:53:40;101794.34;;;7.19
19061;BMP280;9663;48.996;8.334;2023-02-15T00:56:05;101804.44;;;7.19
19061;BMP280;9663;48.996;8.334;2023-02-15T00:58:31;101790.91;;;7.17
19061;BMP280;9663;48.996;8.334;2023-02-15T01:01:09;101796.84;;;7.19
19061;BMP280;9663;48.996;8.334;2023-02-15T01:03:36;101802.72;;;7.18
19061;BMP280;9663;48.996;8.334;2023-02-15T01:06:03;101795.16;;;7.18
19061;BMP280;9663;48.996;8.334;2023-02-15T01:08:29;101796.81;;;7.17
19061;BMP280;9663;48.996;8.334;2023-02-15T01:10:55;101795.06;;;7.15
19061;BMP280;9663;48.996;8.334;2023-02-15T01:13:21;101794.16;;;7.13
19061;BMP280;9663;48.996;8.334;2023-02-15T01:23:08;101783.50;;;6.96
19061;BMP280;9663;48.996;8.334;2023-02-15T01:25:35;101788.66;;;7.01
19061;BMP280;9663;48.996;8.334;2023-02-15T01:28:02;101781.22;;;7.04
19061;BMP280;9663;48.996;8.334;2023-02-15T01:30:27;101789.69;;;7.06
19061;BMP280;9663;48.996;8.334;2023-02-15T01:32:53;101781.25;;;7.05
19061;BMP280;9663;48.996;8.334;2023-02-15T01:35:19;101786.38;;;7.07
19061;BMP280;9663;48.996;8.334;2023-02-15T01:37:44;101783.03;;;7.08
19061;BMP280;9663;48.996;8.334;2023-02-15T01:40:17;101777.94;;;7.06
19061;BMP280;9663;48.996;8.334;2023-02-15T01:42:44;101781.22;;;7.04
19061;BMP280;9663;48.996;8.334;2023-02-15T01:45:31;101778.59;;;7.01
19061;BMP280;9663;48.996;8.334;2023-02-15T01:48:12;101772.75;;;7.02
19061;BMP280;9663;48.996;8.334;2023-02-15T01:50:46;101771.06;;;7.02
19061;BMP280;9663;48.996;8.334;2023-02-15T01:53:23;101769.50;;;7.06
19061;BMP280;9663;48.996;8.334;2023-02-15T01:56:06;101766.19;;;7.07
19061;BMP280;9663;48.996;8.334;2023-02-15T01:58:35;101769.59;;;7.09
19061;BMP280;9663;48.996;8.334;2023-02-15T02:01:01;101760.41;;;7.11
19061;BMP280;9663;48.996;8.334;2023-02-15T02:04:17;101765.44;;;7.11
19061;BMP280;9663;48.996;8.334;2023-02-15T02:06:47;101761.34;;;7.13
19061;BMP280;9663;48.996;8.334;2023-02-15T02:09:14;101752.84;;;7.11
19061;BMP280;9663;48.996;8.334;2023-02-15T02:11:42;101756.94;;;7.07
19061;BMP280;9663;48.996;8.334;2023-02-15T02:14:10;101757.81;;;7.08
19061;BMP280;9663;48.996;8.334;2023-02-15T02:17:05;101755.97;;;7.04
19061;BMP280;9663;48.996;8.334;2023-02-15T02:25:27;101745.72;;;6.98
19061;BMP280;9663;48.996;8.334;2023-02-15T02:31:36;101739.16;;;7.03
19061;BMP280;9663;48.996;8.334;2023-02-15T02:34:30;101734.16;;;7.06
19061;BMP280;9663;48.996;8.334;2023-02-15T02:37:05;101731.75;;;7.09
19061;BMP280;9663;48.996;8.334;2023-02-15T02:39:43;101725.97;;;7.11
19061;BMP280;9663;48.996;8.334;2023-02-15T02:45:26;101732.75;;;7.14
19061;BMP280;9663;48.996;8.334;2023-02-15T02:47:58;101723.53;;;7.14
19061;BMP280;9663;48.996;8.334;2023-02-15T02:50:29;101723.56;;;7.16
19061;BMP280;9663;48.996;8.334;2023-02-15T02:52:58;101726.13;;;7.17
19061;BMP280;9663;48.996;8.334;2023-02-15T02:55:51;101726.19;;;7.19
19061;BMP280;9663;48.996;8.334;2023-02-15T02:58:39;101726.97;;;7.16
19061;BMP280;9663;48.996;8.334;2023-02-15T03:01:24;101720.25;;;7.17
19061;BMP280;9663;48.996;8.334;2023-02-15T03:04:14;101710.03;;;7.14
19061;BMP280;9663;48.996;8.334;2023-02-15T03:06:51;101707.53;;;7.14
19061;BMP280;9663;48.996;8.334;2023-02-15T03:09:31;101705.81;;;7.13
19061;BMP280;9663;48.996;8.334;2023-02-15T03:14:40;101702.41;;;7.12
19061;BMP280;9663;48.996;8.334;2023-02-15T03:17:09;101713.41;;;7.13
19061;BMP280;9663;48.996;8.334;2023-02-15T03:19:39;101710.78;;;7.10
19061;BMP280;9663;48.996;8.334;2023-02-15T03:25:13;101723.84;;;6.98
19061;BMP280;9663;48.996;8.334;2023-02-15T03:27:49;101727.94;;;6.95
19061;BMP280;9663;48.996;8.334;2023-02-15T03:30:20;101729.50;;;6.91
19061;BMP280;9663;48.996;8.334;2023-02-15T03:32:49;101715.97;;;6.89
19061;BMP280;9663;48.996;8.334;2023-02-15T03:35:18;101713.50;;;6.91
19061;BMP280;9663;48.996;8.334;2023-02-15T03:37:53;101717.03;;;6.96
19061;BMP280;9663;48.996;8.334;2023-02-15T03:40:29;101712.09;;;6.99
19061;BMP280;9663;48.996;8.334;2023-02-15T03:43:23;101713.84;;;7.01
19061;BMP280;9663;48.996;8.334;2023-02-15T03:46:06;101720.66;;;7.04
19061;BMP280;9663;48.996;8.334;2023-02-15T03:48:40;101718.19;;;7.05
19061;BMP280;9663;48.996;8.334;2023-02-15T03:51:17;101719.03;;;7.06
19061;BMP280;9663;48.996;8.334;2023-02-15T03:54:11;101720.75;;;7.07
19061;BMP280;9663;48.996;8.334;2023-02-15T03:56:41;101718.28;;;7.08
19061;BMP280;9663;48.996;8.334;2023-02-15T03:59:07;101713.28;;;7.10
19061;BMP280;9663;48.996;8.334;2023-02-15T04:02:38;101722.56;;;7.11
19061;BMP280;9663;48.996;8.334;2023-02-15T04:04:55;101715.00;;;7.11
19061;BMP280;9663;48.996;8.334;2023-02-15T04:07:20;101713.41;;;7.13
19061;BMP280;9663;48.996;8.334;2023-02-15T04:09:46;101725.19;;;7.14
19061;BMP280;9663;48.996;8.334;2023-02-15T04:12:30;101717.66;;;7.15
19061;BMP280;9663;48.996;8.334;2023-02-15T04:14:56;101716.78;;;7.13
19061;BMP280;9663;48.996;8.334;2023-02-15T04:17:40;101715.91;;;7.13
19061;BMP280;9663;48.996;8.334;2023-02-15T04:20:08;101710.03;;;7.14
19061;BMP280;9663;48.996;8.334;2023-02-15T04:22:52;101710.00;;;7.12
19061;BMP280;9663;48.996;8.334;2023-02-15T04:25:36;101713.41;;;7.13
19061;BMP280;9663;48.996;8.334;2023-02-15T04:28:02;101712.56;;;7.14
19061;BMP280;9663;48.996;8.334;2023-02-15T04:30:28;101711.00;;;7.17
19061;BMP280;9663;48.996;8.334;2023-02-15T04:32:54;101700.16;;;7.20
19061;BMP280;9663;48.996;8.334;2023-02-15T04:35:22;101702.72;;;7.21
19061;BMP280;9663;48.996;8.334;2023-02-15T04:37:48;101711.19;;;7.23
19061;BMP280;9663;48.996;8.334;2023-02-15T04:40:15;101706.91;;;7.21
19061;BMP280;9663;48.996;8.334;2023-02-15T04:42:41;101706.00;;;7.19
19061;BMP280;9663;48.996;8.334;2023-02-15T04:45:07;101714.34;;;7.16
19061;BMP280;9663;48.996;8.334;2023-02-15T04:47:33;101713.44;;;7.14
19061;BMP280;9663;48.996;8.334;2023-02-15T04:49:58;101708.31;;;7.11
19061;BMP280;9663;48.996;8.334;2023-02-15T04:52:24;101698.94;;;7.09
19061;BMP280;9663;48.996;8.334;2023-02-15T04:54:50;101713.97;;;7.06
19061;BMP280;9663;48.996;8.334;2023-02-15T04:57:15;101697.03;;;7.02
19061;BMP280;9663;48.996;8.334;2023-02-15T04:59:41;101712.91;;;6.98
19061;BMP280;9663;48.996;8.334;2023-02-15T05:02:07;101712.69;;;6.92
19061;BMP280;9663;48.996;8.334;2023-02-15T05:04:32;101710.06;;;6.89
19061;BMP280;9663;48.996;8.334;2023-02-15T05:06:58;101700.81;;;6.88
19061;BMP280;9663;48.996;8.334;2023-02-15T05:09:24;101705.03;;;6.89
19061;BMP280;9663;48.996;8.334;2023-02-15T05:11:49;101705.84;;;6.88
19061;BMP280;9663;48.996;8.334;2023-02-15T05:14:15;101705.06;;;6.90
19061;BMP280;9663;48.996;8.334;2023-02-15T05:16:41;101708.44;;;6.91
19061;BMP280;9663;48.996;8.334;2023-02-15T05:19:06;101700.88;;;6.91
19061;BMP280;9663;48.996;8.334;2023-02-15T05:21:33;101705.06;;;6.90
19061;BMP280;9663;48.996;8.334;2023-02-15T05:23:58;101702.56;;;6.90
19061;BMP280;9663;48.996;8.334;2023-02-15T05:26:25;101700.97;;;6.94
19061;BMP280;9663;48.996;8.334;2023-02-15T05:29:10;101699.31;;;6.94
19061;BMP280;9663;48.996;8.334;2023-02-15T05:31:37;101697.72;;;6.96
19061;BMP280;9663;48.996;8.334;2023-02-15T05:34:03;101696.75;;;6.93
19061;BMP280;9663;48.996;8.334;2023-02-15T05:36:29;101700.81;;;6.89
19061;BMP280;9663;48.996;8.334;2023-02-15T05:38:55;101701.53;;;6.85
19061;BMP280;9663;48.996;8.334;2023-02-15T05:41:21;101703.97;;;6.82
19061;BMP280;9663;48.996;8.334;2023-02-15T05:43:47;101707.25;;;6.80
19061;BMP280;9663;48.996;8.334;2023-02-15T05:46:12;101702.09;;;6.77
19061;BMP280;9663;48.996;8.334;2023-02-15T05:48:38;101709.56;;;6.74
19061;BMP280;9663;48.996;8.334;2023-02-15T05:51:11;101705.22;;;6.70
19061;BMP280;9663;48.996;8.334;2023-02-15T05:53:39;101714.31;;;6.65
19061;BMP280;9663;48.996;8.334;2023-02-15T05:56:09;101714.25;;;6.64
19061;BMP280;9663;48.996;8.334;2023-02-15T05:58:39;101721.72;;;6.61
19061;BMP280;9663;48.996;8.334;2023-02-15T06:01:13;101715.72;;;6.57
19061;BMP280;9663;48.996;8.334;2023-02-15T06:03:39;101720.75;;;6.57
19061;BMP280;9663;48.996;8.334;2023-02-15T06:06:05;101722.38;;;6.55
19061;BMP280;9663;48.996;8.334;2023-02-15T06:08:33;101725.69;;;6.54
19061;BMP280;9663;48.996;8.334;2023-02-15T06:10:59;101731.53;;;6.53
19061;BMP280;9663;48.996;8.334;2023-02-15T06:13:25;101729.88;;;6.54
19061;BMP280;9663;48.996;8.334;2023-02-15T06:15:51;101724.84;;;6.54
19061;BMP280;9663;48.996;8.334;2023-02-15T06:18:17;101726.53;;;6.55
19061;BMP280;9663;48.996;8.334;2023-02-15T06:20:46;101728.22;;;6.54
19061;BMP280;9663;48.996;8.334;2023-02-15T06:23:11;101729.88;;;6.54
19061;BMP280;9663;48.996;8.334;2023-02-15T06:25:37;101743.28;;;6.53
19061;BMP280;9663;48.996;8.334;2023-02-15T06:28:03;101739.78;;;6.49
19061;BMP280;9663;48.996;8.334;2023-02-15T06:30:29;101739.63;;;6.45
19061;BMP280;9663;48.996;8.334;2023-02-15T06:32:54;101737.88;;;6.42
19061;BMP280;9663;48.996;8.334;2023-02-15T06:35:20;101746.22;;;6.41
19061;BMP280;9663;48.996;8.334;2023-02-15T06:37:48;101744.53;;;6.40
19061;BMP280;9663;48.996;8.334;2023-02-15T06:40:14;101750.25;;;6.37
19061;BMP280;9663;48.996;8.334;2023-02-15T06:42:41;101754.31;;;6.33
19061;BMP280;9663;48.996;8.334;2023-02-15T06:45:08;101757.63;;;6.32
19061;BMP280;9663;48.996;8.334;2023-02-15T06:47:34;101750.97;;;6.33
19061;BMP280;9663;48.996;8.334;2023-02-15T06:50:00;101752.72;;;6.35
19061;BMP280;9663;48.996;8.334;2023-02-15T06:52:25;101759.53;;;6.38
19061;BMP280;9663;48.996;8.334;2023-02-15T06:54:51;101757.88;;;6.38
19061;BMP280;9663;48.996;8.334;2023-02-15T06:57:17;101758.47;;;6.31
19061;BMP280;9663;48.996;8.334;2023-02-15T06:59:42;101757.31;;;6.23
19061;BMP280;9663;48.996;8.334;2023-02-15T07:02:12;101763.16;;;6.22
19061;BMP280;9663;48.996;8.334;2023-02-15T07:04:38;101749.66;;;6.20
19061;BMP280;9663;48.996;8.334;2023-02-15T07:07:07;101755.66;;;6.24
19061;BMP280;9663;48.996;8.334;2023-02-15T07:09:33;101750.66;;;6.25
19061;BMP280;9663;48.996;8.334;2023-02-15T07:11:58;101759.09;;;6.26
19061;BMP280;9663;48.996;8.334;2023-02-15T07:14:42;101758.16;;;6.24
19061;BMP280;9663;48.996;8.334;2023-02-15T07:17:08;101763.97;;;6.21
19061;BMP280;9663;48.996;8.334;2023-02-15T07:19:34;101752.28;;;6.23
19061;BMP280;9663;48.996;8.334;2023-02-15T07:21:59;101763.31;;;6.27
19061;BMP280;9663;48.996;8.334;2023-02-15T07:24:25;101762.47;;;6.26
19061;BMP280;9663;48.996;8.334;2023-02-15T07:26:51;101764.16;;;6.26
19061;BMP280;9663;48.996;8.334;2023-02-15T07:29:17;101764.16;;;6.26
19061;BMP280;9663;48.996;8.334;2023-02-15T07:31:43;101762.34;;;6.23
19061;BMP280;9663;48.996;8.334;2023-02-15T07:34:11;101759.00;;;6.23
19061;BMP280;9663;48.996;8.334;2023-02-15T07:36:37;101758.09;;;6.21
19061;BMP280;9663;48.996;8.334;2023-02-15T07:39:03;101755.59;;;6.22
19061;BMP280;9663;48.996;8.334;2023-02-15T07:41:28;101756.59;;;6.26
19061;BMP280;9663;48.996;8.334;2023-02-15T07:43:54;101753.25;;;6.27
19061;BMP280;9663;48.996;8.334;2023-02-15T07:46:20;101760.81;;;6.27
19061;BMP280;9663;48.996;8.334;2023-02-15T07:48:47;101754.91;;;6.26
19061;BMP280;9663;48.996;8.334;2023-02-15T07:51:13;101762.59;;;6.29
19061;BMP280;9663;48.996;8.334;2023-02-15T07:53:40;101756.00;;;6.33
19061;BMP280;9663;48.996;8.334;2023-02-15T07:56:11;101761.22;;;6.38
19061;BMP280;9663;48.996;8.334;2023-02-15T07:58:38;101753.84;;;6.43
19061;BMP280;9663;48.996;8.334;2023-02-15T08:01:29;101752.28;;;6.46
19061;BMP280;9663;48.996;8.334;2023-02-15T08:03:55;101747.25;;;6.46
19061;BMP280;9663;48.996;8.334;2023-02-15T08:06:27;101747.47;;;6.52
19061;BMP280;9663;48.996;8.334;2023-02-15T08:08:53;101754.31;;;6.56
19061;BMP280;9663;48.996;8.334;2023-02-15T08:11:23;101747.84;;;6.63
19061;BMP280;9663;48.996;8.334;2023-02-15T08:14:04;101743.81;;;6.68
19061;BMP280;9663;48.996;8.334;2023-02-15T08:21:59;101745.66;;;6.73
19061;BMP280;9663;48.996;8.334;2023-02-15T08:24:29;101739.72;;;6.71
19061;BMP280;9663;48.996;8.334;2023-02-15T08:26:56;101732.25;;;6.99
19061;BMP280;9663;48.996;8.334;2023-02-15T08:29:26;101729.41;;;6.88
19061;BMP280;9663;48.996;8.334;2023-02-15T08:32:08;101727.78;;;6.90
19061;BMP280;9663;48.996;8.334;2023-02-15T08:34:38;101738.09;;;6.96
19061;BMP280;9663;48.996;8.334;2023-02-15T08:37:05;101734.84;;;7.00
19061;BMP280;9663;48.996;8.334;2023-02-15T08:39:31;101734.94;;;7.03
19061;BMP280;9663;48.996;8.334;2023-02-15T08:41:57;101733.22;;;7.02
19061;BMP280;9663;48.996;8.334;2023-02-15T08:44:23;101722.16;;;6.99
19061;BMP280;9663;48.996;8.334;2023-02-15T08:46:49;101720.47;;;6.98
19061;BMP280;9663;48.996;8.334;2023-02-15T08:49:21;101720.53;;;7.01
19061;BMP280;9663;48.996;8.334;2023-02-15T08:51:48;101719.69;;;7.00
19061;BMP280;9663;48.996;8.334;2023-02-15T08:54:18;101710.50;;;7.02
19061;BMP280;9663;48.996;8.334;2023-02-15T08:56:45;101719.03;;;7.06
19061;BMP280;9663;48.996;8.334;2023-02-15T08:59:22;101709.94;;;7.11
19061;BMP280;9663;48.996;8.334;2023-02-15T09:01:50;101710.25;;;7.20
19061;BMP280;9663;48.996;8.334;2023-02-15T09:04:17;101706.19;;;7.24
19061;BMP280;9663;48.996;8.334;2023-02-15T09:06:45;101706.31;;;7.27
19061;BMP280;9663;48.996;8.334;2023-02-15T09:09:11;101710.63;;;7.31
19061;BMP280;9663;48.996;8.334;2023-02-15T09:11:40;101702.34;;;7.35
19061;BMP280;9663;48.996;8.334;2023-02-15T09:14:14;101708.41;;;7.42
19061;BMP280;9663;48.996;8.334;2023-02-15T09:16:42;101710.41;;;7.50
19061;BMP280;9663;48.996;8.334;2023-02-15T09:19:10;101707.34;;;7.60
19061;BMP280;9663;48.996;8.334;2023-02-15T09:21:37;101691.63;;;7.70
19061;BMP280;9663;48.996;8.334;2023-02-15T09:24:09;101691.91;;;7.79
19061;BMP280;9663;48.996;8.334;2023-02-15T09:26:39;101699.72;;;7.86
19061;BMP280;9663;48.996;8.334;2023-02-15T09:29:09;101697.25;;;7.89
19061;BMP280;9663;48.996;8.334;2023-02-15T09:31:45;101693.22;;;7.96
19061;BMP280;9663;48.996;8.334;2023-02-15T09:34:16;101702.72;;;8.03
19061;BMP280;9663;48.996;8.334;2023-02-15T09:36:43;101691.78;;;8.04
19061;BMP280;9663;48.996;8.334;2023-02-15T09:39:16;101692.72;;;8.07
19061;BMP280;9663;48.996;8.334;2023-02-15T09:42:34;101692.03;;;8.11
19061;BMP280;9663;48.996;8.334;2023-02-15T09:48:15;101684.66;;;8.18
19061;BMP280;9663;48.996;8.334;2023-02-15T09:56:55;101703.47;;;8.28
19061;BMP280;9663;48.996;8.334;2023-02-15T10:05:12;101702.44;;;8.21
19061;BMP280;9663;48.996;8.334;2023-02-15T10:07:44;101709.16;;;8.21
19061;BMP280;9663;48.996;8.334;2023-02-15T10:13:39;101698.31;;;8.25
19061;BMP280;9663;48.996;8.334;2023-02-15T10:20:00;101695.19;;;8.33
19061;BMP280;9663;48.996;8.334;2023-02-15T10:23:18;101697.00;;;8.37
19061;BMP280;9663;48.996;8.334;2023-02-15T10:26:10;101679.38;;;8.42
19061;BMP280;9663;48.996;8.334;2023-02-15T10:31:52;101683.84;;;8.50
19061;BMP280;9663;48.996;8.334;2023-02-15T10:37:32;101687.56;;;8.64
19061;BMP280;9663;48.996;8.334;2023-02-15T10:45:57;101672.75;;;8.77
19061;BMP280;9663;48.996;8.334;2023-02-15T10:48:52;101676.25;;;8.82
19061;BMP280;9663;48.996;8.334;2023-02-15T10:51:44;101678.19;;;8.92
19061;BMP280;9663;48.996;8.334;2023-02-15T11:06:25;101666.38;;;8.91
19061;BMP280;9663;48.996;8.334;2023-02-15T11:08:59;101668.00;;;8.91
19061;BMP280;9663;48.996;8.334;2023-02-15T11:11:34;101677.25;;;8.89
19061;BMP280;9663;48.996;8.334;2023-02-15T11:14:13;101665.53;;;8.92
19061;BMP280;9663;48.996;8.334;2023-02-15T11:16:45;101657.22;;;8.97
19061;BMP280;9663;48.996;8.334;2023-02-15T11:19:26;101663.25;;;9.02
19061;BMP280;9663;48.996;8.334;2023-02-15T11:22:01;101650.78;;;9.10
19061;BMP280;9663;48.996;8.334;2023-02-15T11:24:31;101654.31;;;9.16
19061;BMP280;9663;48.996;8.334;2023-02-15T11:27:22;101645.91;;;9.19
19061;BMP280;9663;48.996;8.334;2023-02-15T11:30:02;101640.09;;;9.23
19061;BMP280;9663;48.996;8.334;2023-02-15T11:32:59;101640.06;;;9.21
19061;BMP280;9663;48.996;8.334;2023-02-15T11:35:38;101641.06;;;9.28
19061;BMP280;9663;48.996;8.334;2023-02-15T11:38:26;101633.44;;;9.26
19061;BMP280;9663;48.996;8.334;2023-02-15T11:41:04;101626.75;;;9.30
19061;BMP280;9663;48.996;8.334;2023-02-15T11:44:11;101619.19;;;9.31
19061;BMP280;9663;48.996;8.334;2023-02-15T11:46:38;101615.97;;;9.38
19061;BMP280;9663;48.996;8.334;2023-02-15T11:51:53;101604.47;;;9.52
19061;BMP280;9663;48.996;8.334;2023-02-15T11:54:28;101591.94;;;9.59
19061;BMP280;9663;48.996;8.334;2023-02-15T11:56:59;101600.44;;;9.63
19061;BMP280;9663;48.996;8.334;2023-02-15T11:59:34;101594.63;;;9.67
19061;BMP280;9663;48.996;8.334;2023-02-15T12:02:02;101587.84;;;9.66
19061;BMP280;9663;48.996;8.334;2023-02-15T12:04:35;101585.34;;;9.67
19061;BMP280;9663;48.996;8.334;2023-02-15T12:07:13;101587.06;;;9.68
19061;BMP280;9663;48.996;8.334;2023-02-15T12:10:10;101573.59;;;9.71
19061;BMP280;9663;48.996;8.334;2023-02-15T12:12:41;101579.59;;;9.76
19061;BMP280;9663;48.996;8.334;2023-02-15T12:15:11;101579.66;;;9.78
19061;BMP280;9663;48.996;8.334;2023-02-15T12:17:53;101573.78;;;9.81
19061;BMP280;9663;48.996;8.334;2023-02-15T12:20:31;101573.88;;;9.85
19061;BMP280;9663;48.996;8.334;2023-02-15T12:23:12;101578.22;;;9.89
19061;BMP280;9663;48.996;8.334;2023-02-15T12:25:54;101571.47;;;9.91
19061;BMP280;9663;48.996;8.334;2023-02-15T12:30:54;101562.47;;;10.05
19061;BMP280;9663;48.996;8.334;2023-02-15T12:33:36;101554.91;;;10.08
19061;BMP280;9663;48.996;8.334;2023-02-15T12:36:24;101552.53;;;10.16
19061;BMP280;9663;48.996;8.334;2023-02-15T12:41:38;101543.13;;;10.60
19061;BMP280;9663;48.996;8.334;2023-02-15T12:44:20;101545.97;;;10.78
19061;BMP280;9663;48.996;8.334;2023-02-15T12:47:18;101546.19;;;10.93
19061;BMP280;9663;48.996;8.334;2023-02-15T12:50:04;101537.84;;;11.03
19061;BMP280;9663;48.996;8.334;2023-02-15T12:52:31;101538.00;;;11.13
19061;BMP280;9663;48.996;8.334;2023-02-15T12:55:24;101542.31;;;11.20
19061;BMP280;9663;48.996;8.334;2023-02-15T12:58:28;101550.81;;;11.20
19061;BMP280;9663;48.996;8.334;2023-02-15T13:04:18;101539.88;;;11.26
19061;BMP280;9663;48.996;8.334;2023-02-15T13:06:50;101532.31;;;11.30
19061;BMP280;9663;48.996;8.334;2023-02-15T13:09:20;101520.44;;;11.31
19061;BMP280;9663;48.996;8.334;2023-02-15T13:11:46;101521.28;;;11.30
19061;BMP280;9663;48.996;8.334;2023-02-15T13:14:31;101517.97;;;11.34
19061;BMP280;9663;48.996;8.334;2023-02-15T13:17:02;101508.75;;;11.45
19061;BMP280;9663;48.996;8.334;2023-02-15T13:22:12;101505.53;;;11.56
19061;BMP280;9663;48.996;8.334;2023-02-15T13:24:56;101504.72;;;11.58
19061;BMP280;9663;48.996;8.334;2023-02-15T13:27:35;101498.75;;;11.55
19061;BMP280;9663;48.996;8.334;2023-02-15T13:30:14;101491.91;;;11.50
19061;BMP280;9663;48.996;8.334;2023-02-15T13:32:45;101495.31;;;11.49
19061;BMP280;9663;48.996;8.334;2023-02-15T13:35:16;101492.75;;;11.49
19061;BMP280;9663;48.996;8.334;2023-02-15T13:38:00;101491.06;;;11.49
19061;BMP280;9663;48.996;8.334;2023-02-15T13:43:25;101478.22;;;11.40
19061;BMP280;9663;48.996;8.334;2023-02-15T13:49:09;101480.41;;;11.12
19061;BMP280;9663;48.996;8.334;2023-02-15T14:06:34;101467.94;;;10.65
19061;BMP280;9663;48.996;8.334;2023-02-15T14:12:19;101462.94;;;10.69
19061;BMP280;9663;48.996;8.334;2023-02-15T14:15:12;101458.69;;;10.70
19061;BMP280;9663;48.996;8.334;2023-02-15T14:18:01;101466.25;;;10.65
19061;BMP280;9663;48.996;8.334;2023-02-15T14:20:47;101464.56;;;10.66
19061;BMP280;9663;48.996;8.334;2023-02-15T14:23:33;101468.88;;;10.71
19061;BMP280;9663;48.996;8.334;2023-02-15T14:29:18;101464.84;;;10.87
19061;BMP280;9663;48.996;8.334;2023-02-15T14:31:52;101457.31;;;10.91
19061;BMP280;9663;48.996;8.334;2023-02-15T14:34:51;101472.59;;;10.97
19061;BMP280;9663;48.996;8.334;2023-02-15T14:37:32;101462.56;;;11.05
19061;BMP280;9663;48.996;8.334;2023-02-15T14:46:16;101469.50;;;11.17
19061;BMP280;9663;48.996;8.334;2023-02-15T14:48:49;101463.59;;;11.21
19061;BMP280;9663;48.996;8.334;2023-02-15T14:59:54;101460.41;;;11.36
19061;BMP280;9663;48.996;8.334;2023-02-15T15:02:39;101457.84;;;11.34
19061;BMP280;9663;48.996;8.334;2023-02-15T15:05:33;101457.88;;;11.37
19061;BMP280;9663;48.996;8.334;2023-02-15T15:08:03;101453.72;;;11.45
19061;BMP280;9663;48.996;8.334;2023-02-15T15:10:38;101453.03;;;11.59
19061;BMP280;9663;48.996;8.334;2023-02-15T15:13:34;101450.84;;;11.93
19061;BMP280;9663;48.996;8.334;2023-02-15T15:16:50;101448.00;;;12.61
19061;BMP280;9663;48.996;8.334;2023-02-15T15:22:22;101435.72;;;13.95
19061;BMP280;9663;48.996;8.334;2023-02-15T15:24:57;101430.63;;;14.45
19061;BMP280;9663;48.996;8.334;2023-02-15T15:28:05;101428.81;;;14.75
19061;BMP280;9663;48.996;8.334;2023-02-15T15:39:09;101424.53;;;14.91
19061;BMP280;9663;48.996;8.334;2023-02-15T15:41:42;101422.84;;;14.87
19061;BMP280;9663;48.996;8.334;2023-02-15T15:44:44;101416.94;;;14.73
19061;BMP280;9663;48.996;8.334;2023-02-15T15:50:42;101418.66;;;14.62
19061;BMP280;9663;48.996;8.334;2023-02-15T15:53:22;101410.94;;;14.75
19061;BMP280;9663;48.996;8.334;2023-02-15T15:56:03;101410.94;;;14.75
19061;BMP280;9663;48.996;8.334;2023-02-15T15:58:30;101419.53;;;14.49
19061;BMP280;9663;48.996;8.334;2023-02-15T16:01:11;101418.75;;;14.04
19061;BMP280;9663;48.996;8.334;2023-02-15T16:03:48;101426.31;;;13.58
19061;BMP280;9663;48.996;8.334;2023-02-15T16:06:34;101438.94;;;13.12
19061;BMP280;9663;48.996;8.334;2023-02-15T16:09:22;101446.31;;;12.71
19061;BMP280;9663;48.996;8.334;2023-02-15T16:11:52;101445.28;;;12.39
19061;BMP280;9663;48.996;8.334;2023-02-15T16:14:38;101447.50;;;11.97
19061;BMP280;9663;48.996;8.334;2023-02-15T16:17:13;101453.97;;;11.66
19061;BMP280;9663;48.996;8.334;2023-02-15T16:19:44;101445.16;;;11.36
19061;BMP280;9663;48.996;8.334;2023-02-15T16:22:24;101445.63;;;11.07
19061;BMP280;9663;48.996;8.334;2023-02-15T16:25:56;101445.22;;;10.74
19061;BMP280;9663;48.996;8.334;2023-02-15T16:28:28;101449.09;;;10.50
19061;BMP280;9663;48.996;8.334;2023-02-15T16:31:12;101448.78;;;10.29
19061;BMP280;9663;48.996;8.334;2023-02-15T16:33:41;101456.16;;;10.14
19061;BMP280;9663;48.996;8.334;2023-02-15T16:36:19;101453.38;;;9.99
19061;BMP280;9663;48.996;8.334;2023-02-15T16:39:08;101459.75;;;9.79
19061;BMP280;9663;48.996;8.334;2023-02-15T16:41:34;101469.63;;;9.66
19061;BMP280;9663;48.996;8.334;2023-02-15T16:44:09;101469.38;;;9.53
19061;BMP280;9663;48.996;8.334;2023-02-15T16:46:42;101468.22;;;9.36
19061;BMP280;9663;48.996;8.334;2023-02-15T16:49:20;101476.34;;;9.22
19061;BMP280;9663;48.996;8.334;2023-02-15T16:52:04;101468.41;;;9.05
19061;BMP280;9663;48.996;8.334;2023-02-15T16:54:33;101474.88;;;8.92
19061;BMP280;9663;48.996;8.334;2023-02-15T16:56:59;101477.19;;;8.81
19061;BMP280;9663;48.996;8.334;2023-02-15T16:59:41;101487.06;;;8.71
19061;BMP280;9663;48.996;8.334;2023-02-15T17:02:18;101483.47;;;8.60
19061;BMP280;9663;48.996;8.334;2023-02-15T17:05:06;101483.19;;;8.50
19061;BMP280;9663;48.996;8.334;2023-02-15T17:07:33;101477.97;;;8.42
19061;BMP280;9663;48.996;8.334;2023-02-15T17:09:59;101478.69;;;8.38
19061;BMP280;9663;48.996;8.334;2023-02-15T17:12:52;101470.06;;;8.30
19061;BMP280;9663;48.996;8.334;2023-02-15T17:15:43;101475.78;;;8.22
19061;BMP280;9663;48.996;8.334;2023-02-15T17:18:16;101468.88;;;8.15
19061;BMP280;9663;48.996;8.334;2023-02-15T17:20:44;101476.25;;;8.09
19061;BMP280;9663;48.996;8.334;2023-02-15T17:23:35;101473.53;;;8.00
19061;BMP280;9663;48.996;8.334;2023-02-15T17:28:55;101470.69;;;7.88